Time;durP1;ratioP1;P1;durP2;ratioP2;P2;SDS_P1;SDS_P2;PMS_P1;PMS_P2;Temp;Humidity;BMP_temperature;BMP_pressure;BME280_temperature;BME280_humidity;BME280_pressure;Samples;Min_cycle;Max_cycle;Signal;HPM_P1;HPM_P2
2023/04/23 00:01:59;;;;;;;58.13;32.33;;;;;;;;;;5020644;28;20428;-46
2023/04/23 00:04:25;;;;;;;57.97;29.30;;;;;;;;;;5021542;28;20466;-45
2023/04/23 00:06:52;;;;;;;52.37;28.50;;;;;;;;;;5015453;28;20477;-45
2023/04/23 00:09:18;;;;;;;61.37;28.90;;;;;;;;;;5017627;28;20432;-46
2023/04/23 00:11:44;;;;;;;67.20;31.67;;;;;;;;;;5018832;28;20878;-45
2023/04/23 00:14:10;;;;;;;62.43;28.80;;;;;;;;;;5012272;28;20430;-44
2023/04/23 00:16:37;;;;;;;58.57;29.27;;;;;;;;;;5019452;28;20430;-46
2023/04/23 00:19:03;;;;;;;55.57;29.50;;;;;;;;;;5023117;28;20457;-47
2023/04/23 00:21:30;;;;;;;59.40;30.00;;;;;;;;;;5018901;28;20418;-46
2023/04/23 00:23:56;;;;;;;57.00;31.30;;;;;;;;;;5012083;28;20460;-46
2023/04/23 00:26:22;;;;;;;53.00;29.07;;;;;;;;;;5013423;28;20415;-46
2023/04/23 00:28:48;;;;;;;52.57;27.10;;;;;;;;;;5018015;28;20430;-46
2023/04/23 00:31:14;;;;;;;59.03;27.40;;;;;;;;;;5024133;28;20771;-46
2023/04/23 00:33:40;;;;;;;55.20;29.10;;;;;;;;;;5018547;28;20411;-46
2023/04/23 00:36:06;;;;;;;56.57;28.70;;;;;;;;;;5019928;28;20421;-46
2023/04/23 00:38:32;;;;;;;54.90;29.20;;;;;;;;;;5015504;28;20434;-44
2023/04/23 00:40:58;;;;;;;53.40;28.47;;;;;;;;;;5008590;28;20455;-45
2023/04/23 00:43:24;;;;;;;58.20;31.37;;;;;;;;;;5022667;28;20465;-45
2023/04/23 00:45:50;;;;;;;69.90;30.87;;;;;;;;;;5016451;28;20428;-44
2023/04/23 00:48:16;;;;;;;61.80;30.93;;;;;;;;;;5025269;28;20442;-46
2023/04/23 00:50:42;;;;;;;53.70;28.37;;;;;;;;;;5020880;28;20400;-46
2023/04/23 00:53:08;;;;;;;52.63;28.23;;;;;;;;;;5016142;28;20779;-46
2023/04/23 00:55:35;;;;;;;56.97;28.93;;;;;;;;;;5014416;28;20414;-46
2023/04/23 00:58:01;;;;;;;50.47;28.03;;;;;;;;;;5019328;28;20891;-44
2023/04/23 01:00:27;;;;;;;55.63;29.13;;;;;;;;;;5012458;28;20510;-44
2023/04/23 01:02:53;;;;;;;54.50;28.80;;;;;;;;;;5019791;28;20509;-46
2023/04/23 01:05:21;;;;;;;47.97;26.63;;;;;;;;;;5016680;28;20765;-46
2023/04/23 01:07:47;;;;;;;48.37;26.80;;;;;;;;;;5017875;28;20433;-46
2023/04/23 01:10:13;;;;;;;44.00;24.90;;;;;;;;;;5012964;28;20408;-45
2023/04/23 01:12:39;;;;;;;43.83;24.10;;;;;;;;;;5018901;28;20415;-45
2023/04/23 01:15:07;;;;;;;37.23;22.40;;;;;;;;;;5022815;28;20431;-46
2023/04/23 01:17:33;;;;;;;44.10;25.53;;;;;;;;;;5018832;28;20469;-47
2023/04/23 01:19:59;;;;;;;45.20;24.67;;;;;;;;;;5011535;28;20472;-47
2023/04/23 01:22:25;;;;;;;45.37;24.40;;;;;;;;;;5012046;28;20838;-46
2023/04/23 01:24:51;;;;;;;46.57;25.60;;;;;;;;;;5018852;28;20403;-44
2023/04/23 01:27:19;;;;;;;40.57;24.50;;;;;;;;;;5023242;28;20406;-46
2023/04/23 01:29:45;;;;;;;41.87;23.90;;;;;;;;;;5018046;28;20411;-46
2023/04/23 01:32:11;;;;;;;40.73;22.70;;;;;;;;;;5018772;28;20915;-44
2023/04/23 01:34:37;;;;;;;37.93;23.80;;;;;;;;;;5016357;28;20414;-44
2023/04/23 01:37:04;;;;;;;38.03;22.83;;;;;;;;;;5008532;28;20519;-47
2023/04/23 01:39:30;;;;;;;43.00;23.67;;;;;;;;;;5021887;28;20442;-46
2023/04/23 01:41:57;;;;;;;36.60;23.03;;;;;;;;;;5018210;28;20420;-46
2023/04/23 01:44:23;;;;;;;36.13;21.80;;;;;;;;;;5014473;28;21073;-46
2023/04/23 01:46:49;;;;;;;35.87;22.50;;;;;;;;;;5019184;28;20482;-46
2023/04/23 01:49:15;;;;;;;41.53;23.00;;;;;;;;;;5014681;28;20518;-47
2023/04/23 01:51:42;;;;;;;33.97;21.77;;;;;;;;;;5013152;28;20780;-44
2023/04/23 01:54:08;;;;;;;36.20;21.90;;;;;;;;;;5018731;28;20798;-47
2023/04/23 01:56:35;;;;;;;40.77;23.13;;;;;;;;;;5022356;28;20438;-46
2023/04/23 01:59:01;;;;;;;37.57;22.10;;;;;;;;;;5014645;28;20438;-46
2023/04/23 02:01:41;;;;;;;39.77;22.80;;;;;;;;;;5014905;28;20416;-45
2023/04/23 02:04:06;;;;;;;41.87;22.93;;;;;;;;;;5008944;28;20502;-46
2023/04/23 02:06:32;;;;;;;37.50;23.07;;;;;;;;;;5015573;28;20439;-46
2023/04/23 02:08:58;;;;;;;37.33;21.53;;;;;;;;;;5021213;28;20410;-45
2023/04/23 02:11:24;;;;;;;37.53;22.13;;;;;;;;;;5020155;28;20906;-45
2023/04/23 02:13:50;;;;;;;36.13;22.17;;;;;;;;;;5018391;28;20439;-45
2023/04/23 02:16:16;;;;;;;35.00;20.03;;;;;;;;;;5022254;28;20508;-45
2023/04/23 02:18:42;;;;;;;36.50;21.90;;;;;;;;;;5007903;28;20439;-46
2023/04/23 02:21:08;;;;;;;36.67;21.10;;;;;;;;;;5022046;28;20410;-46
2023/04/23 02:23:34;;;;;;;37.20;23.30;;;;;;;;;;5020659;28;20980;-45
2023/04/23 02:26:00;;;;;;;38.20;21.93;;;;;;;;;;5025449;28;20765;-46
2023/04/23 02:28:26;;;;;;;41.07;22.50;;;;;;;;;;5019803;28;20422;-46
2023/04/23 02:30:52;;;;;;;38.70;22.53;;;;;;;;;;5019888;28;20402;-46
2023/04/23 02:33:18;;;;;;;41.77;22.97;;;;;;;;;;5014038;28;20406;-46
2023/04/23 02:35:45;;;;;;;38.97;24.30;;;;;;;;;;5021264;28;20595;-45
2023/04/23 02:38:11;;;;;;;41.70;23.77;;;;;;;;;;5022477;28;20422;-45
2023/04/23 02:40:36;;;;;;;35.87;20.80;;;;;;;;;;5019010;28;20419;-47
2023/04/23 02:43:02;;;;;;;37.83;22.97;;;;;;;;;;5024379;28;20454;-45
2023/04/23 02:45:28;;;;;;;38.77;22.30;;;;;;;;;;5017884;28;20407;-44
2023/04/23 02:47:54;;;;;;;35.40;20.87;;;;;;;;;;5009195;28;20443;-46
2023/04/23 02:50:20;;;;;;;40.10;21.60;;;;;;;;;;5025804;28;20423;-46
2023/04/23 02:52:47;;;;;;;38.17;21.50;;;;;;;;;;5026274;28;20410;-46
2023/04/23 02:55:13;;;;;;;39.20;22.73;;;;;;;;;;5009636;28;20481;-45
2023/04/23 02:57:39;;;;;;;39.90;22.60;;;;;;;;;;5017444;28;20427;-44
2023/04/23 03:00:06;;;;;;;42.53;21.67;;;;;;;;;;5016788;28;20421;-46
2023/04/23 03:02:32;;;;;;;39.23;21.97;;;;;;;;;;5011555;28;20459;-45
2023/04/23 03:04:58;;;;;;;43.63;23.47;;;;;;;;;;5019049;28;20489;-44
2023/04/23 03:07:24;;;;;;;41.13;22.27;;;;;;;;;;5023490;28;20409;-45
2023/04/23 03:09:50;;;;;;;34.37;21.93;;;;;;;;;;5021626;28;20446;-46
2023/04/23 03:12:17;;;;;;;40.40;21.87;;;;;;;;;;5022258;28;20409;-46
2023/04/23 03:14:43;;;;;;;41.43;23.30;;;;;;;;;;5018691;28;20414;-45
2023/04/23 03:17:10;;;;;;;45.03;25.17;;;;;;;;;;5010435;28;20407;-46
2023/04/23 03:19:35;;;;;;;34.83;21.67;;;;;;;;;;5023833;28;20549;-46
2023/04/23 03:22:04;;;;;;;36.77;21.57;;;;;;;;;;5019953;28;20497;-46
2023/04/23 03:24:34;;;;;;;39.07;22.20;;;;;;;;;;5018496;28;20480;-45
2023/04/23 03:27:00;;;;;;;40.27;22.07;;;;;;;;;;5022588;28;20770;-45
2023/04/23 03:29:27;;;;;;;36.50;21.87;;;;;;;;;;5016430;28;20420;-46
2023/04/23 03:31:53;;;;;;;38.33;24.07;;;;;;;;;;5014543;28;20403;-44
2023/04/23 03:34:19;;;;;;;40.67;23.90;;;;;;;;;;5019124;28;20497;-45
2023/04/23 03:36:47;;;;;;;40.17;22.93;;;;;;;;;;5023413;28;20430;-44
2023/04/23 03:39:13;;;;;;;42.67;22.50;;;;;;;;;;5017562;28;20430;-44
2023/04/23 03:41:39;;;;;;;44.07;23.37;;;;;;;;;;5013286;28;20482;-44
2023/04/23 03:44:05;;;;;;;46.23;25.33;;;;;;;;;;5019110;28;20463;-44
2023/04/23 03:46:31;;;;;;;40.80;25.90;;;;;;;;;;5021209;28;20495;-44
2023/04/23 03:48:57;;;;;;;37.00;23.20;;;;;;;;;;5022590;28;20442;-44
2023/04/23 03:51:23;;;;;;;40.20;23.40;;;;;;;;;;5022082;28;21107;-45
2023/04/23 03:53:49;;;;;;;38.60;23.20;;;;;;;;;;5022064;28;20398;-44
2023/04/23 03:56:15;;;;;;;38.33;23.87;;;;;;;;;;5014944;28;20552;-45
2023/04/23 03:58:41;;;;;;;36.53;21.97;;;;;;;;;;5009764;28;20515;-44
2023/04/23 04:01:07;;;;;;;39.87;24.63;;;;;;;;;;5024428;28;20414;-44
2023/04/23 04:03:33;;;;;;;39.67;25.13;;;;;;;;;;5021352;28;20460;-44
2023/04/23 04:05:59;;;;;;;39.80;22.13;;;;;;;;;;5023237;28;20925;-44
2023/04/23 04:08:25;;;;;;;36.13;20.83;;;;;;;;;;5018067;28;20439;-45
2023/04/23 04:10:52;;;;;;;36.37;22.33;;;;;;;;;;5018394;28;20884;-45
2023/04/23 04:13:18;;;;;;;37.97;23.27;;;;;;;;;;5012870;28;20415;-46
2023/04/23 04:15:44;;;;;;;38.40;20.77;;;;;;;;;;5021412;28;20433;-45
2023/04/23 04:18:10;;;;;;;43.93;25.37;;;;;;;;;;5020080;28;20512;-46
2023/04/23 04:20:36;;;;;;;37.00;22.73;;;;;;;;;;5017746;28;20408;-45
2023/04/23 04:23:02;;;;;;;37.17;20.93;;;;;;;;;;5023183;28;20459;-45
2023/04/23 04:25:28;;;;;;;36.07;22.73;;;;;;;;;;5016017;28;20891;-45
2023/04/23 04:27:56;;;;;;;40.80;22.40;;;;;;;;;;5015171;28;20789;-45
2023/04/23 04:30:23;;;;;;;35.07;21.93;;;;;;;;;;5020153;28;20458;-44
2023/04/23 04:32:49;;;;;;;37.60;23.50;;;;;;;;;;5025045;28;20416;-47
2023/04/23 04:35:15;;;;;;;37.43;22.87;;;;;;;;;;5018957;28;20774;-45
2023/04/23 04:37:43;;;;;;;37.37;20.47;;;;;;;;;;5013959;28;20987;-47
2023/04/23 04:40:10;;;;;;;42.97;23.60;;;;;;;;;;5018549;28;20827;-45
2023/04/23 04:42:38;;;;;;;37.03;22.10;;;;;;;;;;5016697;28;20530;-46
2023/04/23 04:45:04;;;;;;;40.00;23.43;;;;;;;;;;5020806;28;20819;-46
2023/04/23 04:47:31;;;;;;;31.13;20.10;;;;;;;;;;5019916;28;20442;-46
2023/04/23 04:49:58;;;;;;;35.77;23.13;;;;;;;;;;5020860;28;20416;-44
2023/04/23 04:52:24;;;;;;;38.03;21.00;;;;;;;;;;5016822;28;20910;-45
2023/04/23 04:54:50;;;;;;;36.90;22.40;;;;;;;;;;5010707;28;20503;-46
2023/04/23 04:57:17;;;;;;;28.93;19.87;;;;;;;;;;5013416;28;20400;-44
2023/04/23 04:59:43;;;;;;;33.17;20.10;;;;;;;;;;5012810;28;20414;-45
2023/04/23 05:02:09;;;;;;;32.30;18.90;;;;;;;;;;5023515;28;20395;-45
2023/04/23 05:04:35;;;;;;;35.80;18.97;;;;;;;;;;5020459;28;20516;-46
2023/04/23 05:07:01;;;;;;;27.60;18.23;;;;;;;;;;5009087;28;20410;-44
2023/04/23 05:09:27;;;;;;;29.10;18.87;;;;;;;;;;5022877;28;20488;-45
2023/04/23 05:11:53;;;;;;;31.07;19.80;;;;;;;;;;5019058;28;20418;-45
2023/04/23 05:14:19;;;;;;;28.70;18.30;;;;;;;;;;5021337;28;20407;-46
2023/04/23 05:16:45;;;;;;;29.60;18.27;;;;;;;;;;5020135;28;20471;-46
2023/04/23 05:19:11;;;;;;;28.10;18.13;;;;;;;;;;5019384;28;20492;-46
2023/04/23 05:21:37;;;;;;;24.10;16.77;;;;;;;;;;5016324;28;20445;-46
2023/04/23 05:24:03;;;;;;;24.53;16.47;;;;;;;;;;5019424;28;20886;-45
2023/04/23 05:26:29;;;;;;;26.50;17.93;;;;;;;;;;5022625;28;20417;-46
2023/04/23 05:28:55;;;;;;;26.40;17.67;;;;;;;;;;5015485;28;20770;-46
2023/04/23 05:31:21;;;;;;;28.60;17.60;;;;;;;;;;5017444;28;20416;-45
2023/04/23 05:33:47;;;;;;;25.80;16.53;;;;;;;;;;5018757;28;20891;-46
2023/04/23 05:36:13;;;;;;;27.47;18.60;;;;;;;;;;5012944;28;20410;-44
2023/04/23 05:38:39;;;;;;;24.57;17.03;;;;;;;;;;5019026;28;20427;-44
2023/04/23 05:41:05;;;;;;;28.83;16.67;;;;;;;;;;5023636;28;20783;-45
2023/04/23 05:43:31;;;;;;;22.30;16.20;;;;;;;;;;5019655;28;20464;-45
2023/04/23 05:45:57;;;;;;;30.17;18.30;;;;;;;;;;5010029;28;20411;-45
2023/04/23 05:48:23;;;;;;;27.23;17.40;;;;;;;;;;5013960;28;20442;-46
2023/04/23 05:50:49;;;;;;;26.80;16.60;;;;;;;;;;5018519;28;20411;-46
2023/04/23 05:53:15;;;;;;;24.43;16.97;;;;;;;;;;5023184;28;20461;-47
2023/04/23 05:55:41;;;;;;;30.67;17.07;;;;;;;;;;5020984;28;20417;-46
2023/04/23 05:58:07;;;;;;;25.93;16.13;;;;;;;;;;5020608;28;20504;-45
2023/04/23 06:00:34;;;;;;;24.40;16.50;;;;;;;;;;5020339;28;20895;-45
2023/04/23 06:03:00;;;;;;;24.53;15.60;;;;;;;;;;5019748;28;20515;-46
2023/04/23 06:05:26;;;;;;;23.17;15.80;;;;;;;;;;5026344;28;20922;-46
2023/04/23 06:07:52;;;;;;;18.00;13.30;;;;;;;;;;5022594;28;20428;-47
2023/04/23 06:10:18;;;;;;;18.73;15.23;;;;;;;;;;5024910;28;20410;-45
2023/04/23 06:12:45;;;;;;;19.47;14.13;;;;;;;;;;5021566;28;20799;-45
2023/04/23 06:15:11;;;;;;;20.20;14.60;;;;;;;;;;5020139;28;20419;-48
2023/04/23 06:17:37;;;;;;;21.97;15.30;;;;;;;;;;5019088;28;20973;-46
2023/04/23 06:20:04;;;;;;;19.33;13.90;;;;;;;;;;5022430;28;20434;-48
2023/04/23 06:22:30;;;;;;;19.57;12.87;;;;;;;;;;5026157;28;20416;-47
2023/04/23 06:24:56;;;;;;;19.80;13.30;;;;;;;;;;5019333;28;20429;-47
2023/04/23 06:27:22;;;;;;;18.90;11.93;;;;;;;;;;5020512;28;20774;-44
2023/04/23 06:29:48;;;;;;;16.70;13.20;;;;;;;;;;5022015;28;20474;-47
2023/04/23 06:32:14;;;;;;;18.63;12.67;;;;;;;;;;5016323;28;20411;-46
2023/04/23 06:34:40;;;;;;;20.37;12.03;;;;;;;;;;5022708;28;20492;-46
2023/04/23 06:37:07;;;;;;;18.30;13.03;;;;;;;;;;5012884;28;20505;-46
2023/04/23 06:39:33;;;;;;;16.50;12.10;;;;;;;;;;5014130;28;20407;-46
2023/04/23 06:42:00;;;;;;;16.40;12.30;;;;;;;;;;5015096;28;20452;-46
2023/04/23 06:44:26;;;;;;;16.17;12.30;;;;;;;;;;5020153;28;20460;-46
2023/04/23 06:46:52;;;;;;;15.97;12.20;;;;;;;;;;5020513;28;20420;-44
2023/04/23 06:49:18;;;;;;;18.07;12.87;;;;;;;;;;5021207;28;20445;-45
2023/04/23 06:51:44;;;;;;;12.30;9.90;;;;;;;;;;5013496;28;20406;-45
2023/04/23 06:54:10;;;;;;;12.00;10.23;;;;;;;;;;5018267;28;20389;-47
2023/04/23 06:56:36;;;;;;;14.17;11.03;;;;;;;;;;5018429;28;20393;-46
2023/04/23 06:59:02;;;;;;;14.60;10.30;;;;;;;;;;5024682;28;20431;-46
2023/04/23 07:01:28;;;;;;;16.80;11.23;;;;;;;;;;5021318;28;20414;-46
2023/04/23 07:03:54;;;;;;;17.70;11.00;;;;;;;;;;5021208;28;20477;-44
2023/04/23 07:06:20;;;;;;;14.03;10.70;;;;;;;;;;5015782;28;20401;-44
2023/04/23 07:08:46;;;;;;;14.40;11.60;;;;;;;;;;5009554;28;20435;-47
2023/04/23 07:11:12;;;;;;;12.90;10.90;;;;;;;;;;5024313;28;20440;-46
2023/04/23 07:13:39;;;;;;;17.13;11.10;;;;;;;;;;5020537;28;20426;-46
2023/04/23 07:16:05;;;;;;;14.73;9.97;;;;;;;;;;5014075;28;20792;-45
2023/04/23 07:18:31;;;;;;;12.87;9.90;;;;;;;;;;5017209;28;20449;-46
2023/04/23 07:20:57;;;;;;;11.20;9.83;;;;;;;;;;5015057;28;20433;-46
2023/04/23 07:23:23;;;;;;;11.00;8.20;;;;;;;;;;5011925;28;20512;-46
2023/04/23 07:25:49;;;;;;;11.10;9.47;;;;;;;;;;5022684;28;20424;-46
2023/04/23 07:28:15;;;;;;;12.40;9.73;;;;;;;;;;5020940;28;20521;-46
2023/04/23 07:30:41;;;;;;;12.80;8.60;;;;;;;;;;5016163;28;20391;-45
2023/04/23 07:33:07;;;;;;;11.00;8.70;;;;;;;;;;5025749;28;20431;-46
2023/04/23 07:35:33;;;;;;;11.37;9.20;;;;;;;;;;5017671;28;20388;-46
2023/04/23 07:37:59;;;;;;;12.23;8.60;;;;;;;;;;5014228;28;20452;-48
2023/04/23 07:40:25;;;;;;;8.83;7.27;;;;;;;;;;5021625;28;20384;-46
2023/04/23 07:42:51;;;;;;;9.57;7.10;;;;;;;;;;5024130;28;20436;-47
2023/04/23 07:45:18;;;;;;;9.73;7.00;;;;;;;;;;5022295;28;20411;-47
2023/04/23 07:47:45;;;;;;;10.00;7.53;;;;;;;;;;5012730;28;20521;-46
2023/04/23 07:50:11;;;;;;;8.77;5.97;;;;;;;;;;5015153;28;20494;-47
2023/04/23 07:52:37;;;;;;;7.70;6.10;;;;;;;;;;5017220;28;20404;-46
2023/04/23 07:55:03;;;;;;;6.87;5.67;;;;;;;;;;5024574;28;20398;-47
2023/04/23 07:57:29;;;;;;;7.23;6.07;;;;;;;;;;5020635;28;20441;-48
2023/04/23 07:59:55;;;;;;;6.30;4.80;;;;;;;;;;5020441;28;20414;-46
2023/04/23 08:02:24;;;;;;;6.30;4.97;;;;;;;;;;5015205;28;20504;-46
2023/04/23 08:04:50;;;;;;;7.23;5.33;;;;;;;;;;5009605;28;20416;-47
2023/04/23 08:07:16;;;;;;;7.97;5.73;;;;;;;;;;5023322;28;20500;-48
2023/04/23 08:09:42;;;;;;;6.53;5.50;;;;;;;;;;5019745;28;20849;-47
2023/04/23 08:12:08;;;;;;;6.03;5.10;;;;;;;;;;5025244;28;20459;-46
2023/04/23 08:14:34;;;;;;;5.33;4.83;;;;;;;;;;5017487;28;20452;-47
2023/04/23 08:17:00;;;;;;;8.10;4.77;;;;;;;;;;5026217;28;20403;-46
2023/04/23 08:19:30;;;;;;;7.07;4.67;;;;;;;;;;5011937;28;20472;-45
2023/04/23 08:21:56;;;;;;;6.77;4.57;;;;;;;;;;5011628;28;20431;-47
2023/04/23 08:24:22;;;;;;;6.30;4.00;;;;;;;;;;5013530;28;20451;-47
2023/04/23 08:26:48;;;;;;;5.23;4.73;;;;;;;;;;5000191;28;20412;-47
2023/04/23 08:29:14;;;;;;;4.10;3.70;;;;;;;;;;5004277;28;20475;-46
2023/04/23 08:31:40;;;;;;;6.70;4.30;;;;;;;;;;5007387;28;20451;-46
2023/04/23 08:34:06;;;;;;;4.80;4.30;;;;;;;;;;4994367;28;20411;-46
2023/04/23 08:36:32;;;;;;;5.37;4.00;;;;;;;;;;4994100;28;20411;-47
2023/04/23 08:38:59;;;;;;;5.87;4.57;;;;;;;;;;5001674;28;20446;-45
2023/04/23 08:41:26;;;;;;;6.20;3.73;;;;;;;;;;5013689;28;20482;-45
2023/04/23 08:44:05;;;;;;;4.70;4.20;;;;;;;;;;5012537;28;20465;-46
2023/04/23 08:46:32;;;;;;;5.70;4.23;;;;;;;;;;5013063;28;20809;-46
2023/04/23 08:48:58;;;;;;;5.77;4.27;;;;;;;;;;5013082;28;20415;-47
2023/04/23 08:51:25;;;;;;;6.90;4.20;;;;;;;;;;5013018;28;20788;-46
2023/04/23 08:53:54;;;;;;;4.40;4.00;;;;;;;;;;5012767;28;20864;-47
2023/04/23 08:56:20;;;;;;;7.47;5.10;;;;;;;;;;5013113;28;20411;-45
2023/04/23 08:58:47;;;;;;;8.20;4.17;;;;;;;;;;5012512;28;20419;-45
2023/04/23 09:01:13;;;;;;;7.27;4.50;;;;;;;;;;5013425;28;20774;-47
2023/04/23 09:03:40;;;;;;;5.70;4.63;;;;;;;;;;5013532;28;20451;-48
2023/04/23 09:06:06;;;;;;;6.63;4.00;;;;;;;;;;5012377;28;20407;-46
2023/04/23 09:08:32;;;;;;;4.60;3.33;;;;;;;;;;5012472;28;20805;-47
2023/04/23 09:11:00;;;;;;;6.30;3.30;;;;;;;;;;5013115;28;20403;-48
2023/04/23 09:13:26;;;;;;;7.20;3.83;;;;;;;;;;5013379;28;20490;-48
2023/04/23 09:15:52;;;;;;;6.40;3.60;;;;;;;;;;5013395;28;20931;-46
2023/04/23 09:18:19;;;;;;;6.90;4.23;;;;;;;;;;5012887;28;20541;-46
2023/04/23 09:20:45;;;;;;;4.60;3.70;;;;;;;;;;5011799;28;20482;-45
2023/04/23 09:23:14;;;;;;;5.33;4.03;;;;;;;;;;5011875;28;20458;-46
2023/04/23 09:25:40;;;;;;;5.00;3.27;;;;;;;;;;5012654;28;20407;-46
2023/04/23 09:28:09;;;;;;;4.40;3.97;;;;;;;;;;5012796;28;20954;-47
2023/04/23 09:30:39;;;;;;;6.20;2.80;;;;;;;;;;5013181;28;20931;-46
2023/04/23 09:33:05;;;;;;;6.37;3.33;;;;;;;;;;5015289;28;20418;-46
2023/04/23 09:35:34;;;;;;;6.03;3.53;;;;;;;;;;5016553;28;20484;-48
2023/04/23 09:38:04;;;;;;;6.50;3.20;;;;;;;;;;5016279;28;20423;-45
2023/04/23 09:40:30;;;;;;;7.30;3.20;;;;;;;;;;5016658;28;20426;-45
2023/04/23 09:42:56;;;;;;;5.33;3.20;;;;;;;;;;5016153;28;21038;-46
2023/04/23 09:45:24;;;;;;;2.90;2.57;;;;;;;;;;5016277;28;20431;-46
2023/04/23 09:47:51;;;;;;;4.30;2.97;;;;;;;;;;5016679;28;20423;-47
2023/04/23 09:50:17;;;;;;;5.60;3.17;;;;;;;;;;5014538;28;20446;-45
2023/04/23 09:52:43;;;;;;;4.80;2.77;;;;;;;;;;5016544;28;20902;-45
2023/04/23 09:55:10;;;;;;;5.97;3.00;;;;;;;;;;5016601;28;20410;-46
2023/04/23 09:57:36;;;;;;;11.73;4.13;;;;;;;;;;5015570;28;20794;-45
2023/04/23 10:00:13;;;;;;;7.30;3.10;;;;;;;;;;5015484;28;20506;-46
2023/04/23 10:02:40;;;;;;;5.60;2.93;;;;;;;;;;5015937;28;20461;-46
2023/04/23 10:05:18;;;;;;;4.60;2.60;;;;;;;;;;5015639;28;20414;-47
2023/04/23 10:07:45;;;;;;;2.67;2.33;;;;;;;;;;5015293;28;20417;-47
2023/04/23 10:10:12;;;;;;;5.20;3.43;;;;;;;;;;5015391;28;20453;-47
2023/04/23 10:12:38;;;;;;;5.13;2.67;;;;;;;;;;5015375;28;20407;-47
2023/04/23 10:15:05;;;;;;;4.40;2.90;;;;;;;;;;5015336;28;20905;-47
2023/04/23 10:17:31;;;;;;;3.43;2.83;;;;;;;;;;5014971;28;20765;-47
2023/04/23 10:19:57;;;;;;;2.53;2.33;;;;;;;;;;5015059;28;20430;-48
2023/04/23 10:22:24;;;;;;;5.93;3.37;;;;;;;;;;5012591;28;20931;-46
2023/04/23 10:24:54;;;;;;;3.33;2.43;;;;;;;;;;5015136;28;20454;-48
2023/04/23 10:27:22;;;;;;;4.33;2.73;;;;;;;;;;5014928;28;20886;-48
2023/04/23 10:29:48;;;;;;;5.70;2.77;;;;;;;;;;5014913;28;20757;-48
2023/04/23 10:32:15;;;;;;;3.67;2.97;;;;;;;;;;5015009;28;20414;-47
2023/04/23 10:34:41;;;;;;;3.67;3.10;;;;;;;;;;5015197;28;20403;-46
2023/04/23 10:37:07;;;;;;;4.00;2.80;;;;;;;;;;5014831;28;20407;-47
2023/04/23 10:39:34;;;;;;;6.50;2.60;;;;;;;;;;5014681;28;20411;-46
2023/04/23 10:42:01;;;;;;;5.03;3.20;;;;;;;;;;5014836;28;20405;-48
2023/04/23 10:44:34;;;;;;;4.30;3.20;;;;;;;;;;5013997;28;20447;-46
2023/04/23 10:47:01;;;;;;;3.47;3.03;;;;;;;;;;5014717;28;20432;-46
2023/04/23 10:49:30;;;;;;;6.10;3.77;;;;;;;;;;5014317;28;20417;-47
2023/04/23 10:52:03;;;;;;;4.53;3.07;;;;;;;;;;5012816;28;20426;-46
2023/04/23 10:54:32;;;;;;;4.80;3.30;;;;;;;;;;5013983;28;20436;-47
2023/04/23 10:57:00;;;;;;;3.20;2.73;;;;;;;;;;5014289;28;20410;-47
2023/04/23 10:59:28;;;;;;;3.87;2.80;;;;;;;;;;5013736;28;20451;-46
2023/04/23 11:01:56;;;;;;;3.00;2.70;;;;;;;;;;5014741;28;20462;-45
2023/04/23 11:04:23;;;;;;;3.13;2.83;;;;;;;;;;5014309;28;20458;-47
2023/04/23 11:06:50;;;;;;;3.03;2.73;;;;;;;;;;5014356;28;20464;-46
2023/04/23 11:09:29;;;;;;;2.77;2.57;;;;;;;;;;5013971;28;20504;-46
2023/04/23 11:11:56;;;;;;;2.80;2.60;;;;;;;;;;5014278;28;20895;-46
2023/04/23 11:14:33;;;;;;;3.80;2.90;;;;;;;;;;5014138;28;20766;-48
2023/04/23 11:16:59;;;;;;;4.87;2.93;;;;;;;;;;5014207;28;20407;-47
2023/04/23 11:19:25;;;;;;;3.77;2.90;;;;;;;;;;5013683;28;20453;-47
2023/04/23 11:21:58;;;;;;;4.50;3.17;;;;;;;;;;5007882;28;20485;-47
2023/04/23 11:24:50;;;;;;;6.97;3.50;;;;;;;;;;4994249;28;21038;-45
2023/04/23 11:27:17;;;;;;;5.70;3.93;;;;;;;;;;4994660;28;20474;-45
2023/04/23 11:29:45;;;;;;;3.13;2.83;;;;;;;;;;4994062;28;20812;-46
2023/04/23 11:32:14;;;;;;;4.17;3.27;;;;;;;;;;4994225;28;20494;-45
2023/04/23 11:34:42;;;;;;;5.33;3.10;;;;;;;;;;4994222;28;20408;-48
2023/04/23 11:37:09;;;;;;;3.70;2.90;;;;;;;;;;4994217;28;20801;-45
2023/04/23 11:39:35;;;;;;;3.67;3.03;;;;;;;;;;4993929;28;20419;-45
2023/04/23 11:42:02;;;;;;;3.37;2.70;;;;;;;;;;4994037;28;20417;-46
2023/04/23 11:44:29;;;;;;;3.97;3.03;;;;;;;;;;4994055;28;20440;-46
2023/04/23 11:46:55;;;;;;;4.90;3.67;;;;;;;;;;4994029;28;20400;-46
2023/04/23 11:49:21;;;;;;;7.23;3.30;;;;;;;;;;4993731;28;20430;-47
2023/04/23 11:51:48;;;;;;;4.57;3.23;;;;;;;;;;5004983;28;20438;-48
2023/04/23 11:54:15;;;;;;;6.97;3.13;;;;;;;;;;5013500;28;20438;-46
2023/04/23 11:56:41;;;;;;;8.97;3.40;;;;;;;;;;5012306;28;20411;-46
2023/04/23 11:59:07;;;;;;;4.50;3.37;;;;;;;;;;5013059;28;20427;-47
2023/04/23 12:01:40;;;;;;;3.53;2.70;;;;;;;;;;5013276;28;20426;-47
2023/04/23 12:04:10;;;;;;;5.80;2.93;;;;;;;;;;5013260;28;20467;-47
2023/04/23 12:06:36;;;;;;;5.50;2.23;;;;;;;;;;5013190;28;20891;-47
2023/04/23 12:09:02;;;;;;;3.17;2.63;;;;;;;;;;5012882;28;20427;-48
2023/04/23 12:11:28;;;;;;;5.03;2.87;;;;;;;;;;5013139;28;20746;-47
2023/04/23 12:13:54;;;;;;;4.10;2.80;;;;;;;;;;5013116;28;20953;-46
2023/04/23 12:16:32;;;;;;;5.23;2.83;;;;;;;;;;5013470;28;20450;-44
2023/04/23 12:19:00;;;;;;;2.80;2.13;;;;;;;;;;5012649;28;20926;-47
2023/04/23 12:21:28;;;;;;;2.57;2.30;;;;;;;;;;5011162;28;20430;-46
2023/04/23 12:23:55;;;;;;;2.83;2.50;;;;;;;;;;5012113;28;20818;-47
2023/04/23 12:26:23;;;;;;;3.47;2.47;;;;;;;;;;5012898;28;20403;-46
2023/04/23 12:28:49;;;;;;;2.60;2.00;;;;;;;;;;5012488;28;20453;-48
2023/04/23 12:31:28;;;;;;;3.13;2.60;;;;;;;;;;5012881;28;20403;-47
2023/04/23 12:34:04;;;;;;;2.70;2.07;;;;;;;;;;5012956;28;20449;-46
2023/04/23 12:36:31;;;;;;;5.93;2.33;;;;;;;;;;5012670;28;20406;-48
2023/04/23 12:39:15;;;;;;;3.97;2.10;;;;;;;;;;5012331;28;20477;-48
2023/04/23 12:41:41;;;;;;;3.50;1.80;;;;;;;;;;5012817;28;20490;-47
2023/04/23 12:44:07;;;;;;;3.50;2.03;;;;;;;;;;5012550;28;20549;-47
2023/04/23 12:46:33;;;;;;;2.57;1.90;;;;;;;;;;5012642;28;20403;-47
2023/04/23 12:48:59;;;;;;;6.77;4.47;;;;;;;;;;5012187;28;20530;-48
2023/04/23 12:51:25;;;;;;;3.83;2.40;;;;;;;;;;5011631;28;20406;-46
2023/04/23 12:53:51;;;;;;;2.00;1.80;;;;;;;;;;5010660;28;20514;-48
2023/04/23 12:56:17;;;;;;;2.40;2.20;;;;;;;;;;5012399;28;20411;-46
2023/04/23 12:58:43;;;;;;;2.83;2.00;;;;;;;;;;5012102;28;20434;-47
2023/04/23 13:01:10;;;;;;;4.30;2.13;;;;;;;;;;5012401;28;20415;-45
2023/04/23 13:03:36;;;;;;;4.00;2.43;;;;;;;;;;5012288;28;20462;-47
2023/04/23 13:06:02;;;;;;;3.53;2.47;;;;;;;;;;5012313;28;20402;-48
2023/04/23 13:08:28;;;;;;;2.77;2.20;;;;;;;;;;5011849;28;20419;-46
2023/04/23 13:10:54;;;;;;;3.30;2.37;;;;;;;;;;5012257;28;20402;-47
2023/04/23 13:13:20;;;;;;;3.00;2.27;;;;;;;;;;5012443;28;20407;-47
2023/04/23 13:15:46;;;;;;;4.10;1.87;;;;;;;;;;5012552;28;20416;-47
2023/04/23 13:18:12;;;;;;;3.00;2.47;;;;;;;;;;5011667;28;20457;-46
2023/04/23 13:20:38;;;;;;;4.40;2.07;;;;;;;;;;5011488;28;20494;-45
2023/04/23 13:23:04;;;;;;;2.93;1.70;;;;;;;;;;5011315;28;20466;-47
2023/04/23 13:25:30;;;;;;;4.40;2.43;;;;;;;;;;5012132;28;20418;-47
2023/04/23 13:27:56;;;;;;;4.33;2.33;;;;;;;;;;5012006;28;20434;-46
2023/04/23 13:30:22;;;;;;;3.63;2.50;;;;;;;;;;5011944;28;20404;-48
2023/04/23 13:32:48;;;;;;;3.60;3.30;;;;;;;;;;5012041;28;20395;-47
2023/04/23 13:35:15;;;;;;;2.13;1.63;;;;;;;;;;5011882;28;20921;-48
2023/04/23 13:37:41;;;;;;;3.40;2.03;;;;;;;;;;5011842;28;20500;-45
2023/04/23 13:40:07;;;;;;;4.13;1.87;;;;;;;;;;5012078;28;20910;-48
2023/04/23 13:42:34;;;;;;;3.10;2.50;;;;;;;;;;5011936;28;20406;-47
2023/04/23 13:45:01;;;;;;;4.50;2.43;;;;;;;;;;5011946;28;20945;-45
2023/04/23 13:47:30;;;;;;;6.63;2.30;;;;;;;;;;5011937;28;20410;-46
2023/04/23 13:49:56;;;;;;;2.93;1.93;;;;;;;;;;5011658;28;20822;-46
2023/04/23 13:52:22;;;;;;;2.40;2.00;;;;;;;;;;5011315;28;20803;-47
2023/04/23 13:54:49;;;;;;;2.67;1.80;;;;;;;;;;5011905;28;20413;-47
2023/04/23 13:57:15;;;;;;;6.97;2.23;;;;;;;;;;5012070;28;20813;-46
2023/04/23 13:59:41;;;;;;;2.17;1.97;;;;;;;;;;5011613;28;20492;-46
2023/04/23 14:02:07;;;;;;;3.27;2.23;;;;;;;;;;5011853;28;20411;-46
2023/04/23 14:04:33;;;;;;;3.07;2.40;;;;;;;;;;5011624;28;20450;-47
2023/04/23 14:06:59;;;;;;;4.50;2.50;;;;;;;;;;5011693;28;20431;-47
2023/04/23 14:09:25;;;;;;;3.23;2.53;;;;;;;;;;5011466;28;20426;-46
2023/04/23 14:11:51;;;;;;;3.10;2.00;;;;;;;;;;5011691;28;20418;-46
2023/04/23 14:14:17;;;;;;;4.07;2.37;;;;;;;;;;5011753;28;20890;-46
2023/04/23 14:16:43;;;;;;;3.27;2.50;;;;;;;;;;5011547;28;20400;-46
2023/04/23 14:19:09;;;;;;;5.97;2.97;;;;;;;;;;5012004;28;20507;-46
2023/04/23 14:21:36;;;;;;;3.73;2.47;;;;;;;;;;5014553;28;20381;-45
2023/04/23 14:24:09;;;;;;;3.50;2.00;;;;;;;;;;5014181;28;20528;-47
2023/04/23 14:26:36;;;;;;;2.00;1.63;;;;;;;;;;5015223;28;20779;-47